Latest Weather Observations for Emerald

IDQ60801

Issued at 7:42 am EST Friday 21 June 2019 (issued every 10 minutes, with the page automatically refreshed every 10 minutes)

About weather observations | Map of weather stations | Latest weather observations for QLD | Other Formats
Station Details ID: 035264 Name: EMERALD AIRPORT Lat: -23.57 Lon: 148.18 Height: 189.4 m
Data from the previous 72 hours. | See also: Recent months at Emerald
Date/Time
EST
Temp
°C
App
Temp
°C
Dew
Point
°C
Rel
Hum
%
Delta-T
°C
Wind Press
QNH
hPa
Press
MSL
hPa
Rain since
9am
mm
Dir  Spd
km/h
Gust
km/h
Spd
kts
Gust
kts
21/07:30am 8.9 3.5 -1.5 48 4.0 S 17 24 9 13 1022.2 1021.9 0.0
21/07:00am 8.3 2.9 -1.2 51 3.7 S 17 26 9 14 1021.8 1021.5 0.0
21/06:30am 8.1 2.8 -0.9 53 3.5 S 17 24 9 13 1021.4 1021.1 0.0
21/06:00am 8.0 2.7 -0.5 55 3.3 S 17 20 9 11 1021.2 1020.9 0.0
21/05:30am 8.2 3.0 0.4 58 3.1 S 17 20 9 11 1020.8 1020.4 0.0
21/05:00am 8.5 4.2 1.2 60 3.0 S 13 17 7 9 1020.8 1020.4 0.0
21/04:30am 8.7 3.7 1.6 61 3.0 S 17 22 9 12 1020.5 1020.1 0.0
21/04:00am 8.8 4.3 1.9 62 2.9 S 15 17 8 9 1020.5 1020.1 0.0
21/03:30am 9.5 5.4 2.1 60 3.1 S 13 19 7 10 1020.5 1020.1 0.0
21/03:00am 10.0 5.2 2.4 59 3.3 SSE 17 20 9 11 1020.5 1020.1 0.0
21/02:30am 10.2 5.0 2.6 59 3.3 S 19 24 10 13 1020.5 1020.1 0.0
21/02:00am 10.5 5.1 2.6 58 3.4 SSE 20 26 11 14 1020.3 1019.9 0.0
21/01:30am 10.2 5.4 2.8 60 3.2 S 17 22 9 12 1020.4 1020.0 0.0
21/01:00am 10.6 6.2 2.9 59 3.4 SSE 15 20 8 11 1020.7 1020.3 0.0
21/12:30am 10.3 6.3 2.9 60 3.2 SSE 13 17 7 9 1020.6 1020.2 0.0
21/12:00am 10.2 6.6 3.0 61 3.1 SSE 11 13 6 7 1020.8 1020.4 0.0
 
Date/Time
EST
Temp
°C
App
Temp
°C
Dew
Point
°C
Rel
Hum
%
Delta-T
°C
Wind Press
QNH
hPa
Press
MSL
hPa
Rain since
9am
mm
Dir  Spd
km/h
Gust
km/h
Spd
kts
Gust
kts
20/11:30pm 10.5 7.3 3.1 60 3.2 S 9 11 5 6 1020.8 1020.4 0.0
20/11:00pm 11.4 8.8 3.2 57 3.6 SSW 6 7 3 4 1021.1 1020.8 0.0
20/10:30pm 11.4 9.5 2.9 56 3.7 WNW 2 6 1 3 1021.0 1020.6 0.0
20/10:00pm 11.8 8.2 3.1 55 3.8 S 11 15 6 8 1020.9 1020.5 0.0
20/09:30pm 11.6 8.0 2.9 55 3.8 S 11 13 6 7 1020.6 1020.2 0.0
20/09:00pm 12.8 9.6 3.2 52 4.3 S 9 9 5 5 1020.6 1020.2 0.0
20/08:30pm 12.8 9.3 3.5 53 4.2 S 11 13 6 7 1020.5 1020.1 0.0
20/08:00pm 13.1 10.0 3.7 53 4.3 S 9 11 5 6 1020.6 1020.2 0.0
20/07:30pm 13.3 9.8 3.7 52 4.4 S 11 11 6 6 1020.5 1020.1 0.0
20/07:00pm 14.5 11.4 3.6 48 5.0 SSE 9 11 5 6 1020.3 1019.9 0.0
20/06:30pm 15.8 12.6 3.3 43 5.8 SSE 9 11 5 6 1020.0 1019.6 0.0
20/06:00pm 17.0 13.8 3.3 40 6.4 SSE 9 11 5 6 1019.5 1019.2 0.0
20/05:30pm 17.6 14.4 3.1 38 6.8 SE 9 13 5 7 1019.2 1018.9 0.0
20/05:00pm 19.7 16.8 2.6 32 8.0 SSE 7 13 4 7 1019.2 1018.9 0.0
20/04:30pm 20.5 16.8 2.3 30 8.5 SSE 11 15 6 8 1018.9 1018.6 0.0
20/04:00pm 20.8 16.8 2.6 30 8.6 SE 13 17 7 9 1018.7 1018.4 0.0
20/03:30pm 21.2 17.9 2.5 29 8.8 SW 9 17 5 9 1018.5 1018.2 0.0
20/03:00pm 21.0 17.7 2.3 29 8.8 SSW 9 15 5 8 1018.5 1018.2 0.0
20/02:30pm 21.4 18.9 3.6 31 8.6 S 6 15 3 8 1018.7 1018.4 0.0
20/02:00pm 20.5 16.9 2.8 31 8.4 SSE 11 15 6 8 1019.0 1018.7 0.0
20/01:30pm 20.5 17.4 3.7 33 8.1 ESE 9 17 5 9 1019.4 1019.1 0.0
20/01:00pm 20.1 17.3 3.3 33 8.0 SSE 7 15 4 8 1020.1 1019.7 0.0
20/12:30pm 19.9 16.4 3.6 34 7.8 SSE 11 19 6 10 1020.6 1020.2 0.0
20/12:00pm 18.9 14.1 2.7 34 7.5 SE 17 22 9 12 1021.3 1021.0 0.0
20/11:30am 18.7 13.3 2.5 34 7.5 SE 20 26 11 14 1021.6 1021.3 0.0
20/11:00am 18.3 12.2 2.6 35 7.2 SE 24 33 13 18 1021.7 1021.4 0.0
20/10:30am 17.6 11.5 2.8 37 6.9 SSE 24 33 13 18 1021.9 1021.6 0.0
20/10:00am 16.3 8.5 2.0 38 6.4 SSE 32 39 17 21 1021.8 1021.5 0.0
20/09:30am 15.6 8.9 1.7 39 6.2 SSE 26 37 14 20 1022.0 1021.7 0.0
20/09:00am 14.5 8.2 1.8 42 5.6 SSE 24 33 13 18 1021.9 1021.6 0.0
20/08:30am 13.1 6.5 1.8 46 4.9 SSE 26 33 14 18 1021.7 1021.4 0.0
20/08:00am 11.6 5.3 1.5 50 4.3 SSE 24 33 13 18 1021.4 1021.1 0.0
20/07:30am 10.3 4.4 1.7 55 3.6 SSE 22 28 12 15 1021.1 1020.8 0.0
20/07:00am 9.5 3.6 1.7 58 3.3 SSE 22 30 12 16 1020.9 1020.5 0.0
20/06:30am 9.7 3.8 1.6 57 3.4 SSE 22 30 12 16 1020.5 1020.1 0.0
20/06:00am 9.7 3.8 1.6 57 3.4 SSE 22 30 12 16 1020.2 1019.8 0.0
20/05:30am 9.6 3.7 1.5 57 3.4 SSE 22 30 12 16 1019.7 1019.3 0.0
20/05:00am 8.9 3.4 1.6 60 3.0 SSE 20 28 11 15 1019.7 1019.3 0.0
20/04:30am 9.2 3.7 1.6 59 3.2 SSE 20 28 11 15 1019.5 1019.2 0.0
20/04:00am 9.0 3.7 1.9 61 3.0 SSE 19 24 10 13 1019.5 1019.2 0.0
20/03:30am 8.7 3.8 1.8 62 2.9 SSE 17 20 9 11 1019.4 1019.1 0.0
20/03:00am 9.1 4.2 1.8 60 3.1 SSE 17 20 9 11 1019.7 1019.3 0.0
20/02:30am 10.0 4.7 1.9 57 3.4 SSE 19 22 10 12 1019.8 1019.4 0.0
20/02:00am 10.5 5.2 1.9 55 3.7 SSE 19 24 10 13 1020.0 1019.6 0.0
20/01:30am 11.1 5.6 1.9 53 3.9 SSE 20 26 11 14 1019.9 1019.5 0.0
20/01:00am 11.5 6.0 2.0 52 4.1 SSE 20 26 11 14 1020.0 1019.6 0.0
20/12:30am 11.1 5.8 1.9 53 3.9 SSE 19 24 10 13 1020.2 1019.8 0.0
20/12:00am 10.7 5.8 1.8 54 3.8 SSE 17 20 9 11 1020.2 1019.8 0.0
 
Date/Time
EST
Temp
°C
App
Temp
°C
Dew
Point
°C
Rel
Hum
%
Delta-T
°C
Wind Press
QNH
hPa
Press
MSL
hPa
Rain since
9am
mm
Dir  Spd
km/h
Gust
km/h
Spd
kts
Gust
kts
19/11:30pm 11.5 6.6 1.7 51 4.2 SSE 17 22 9 12 1020.4 1020.0 0.0
19/11:00pm 11.4 6.4 1.6 51 4.2 SSE 17 20 9 11 1020.3 1019.9 0.0
19/10:30pm 12.1 7.5 1.7 49 4.5 SSE 15 20 8 11 1020.5 1020.1 0.0
19/10:00pm 12.1 7.6 2.0 50 4.4 S 15 19 8 10 1020.5 1020.1 0.0
19/09:30pm 12.2 8.4 1.8 49 4.5 S 11 15 6 8 1020.5 1020.1 0.0
19/09:00pm 12.5 8.3 1.5 47 4.7 S 13 15 7 8 1020.4 1020.0 0.0
19/08:30pm 13.2 8.9 1.2 44 5.2 SSE 13 15 7 8 1020.2 1019.8 0.0
19/08:00pm 13.8 9.2 1.5 43 5.3 SSE 15 17 8 9 1020.2 1019.8 0.0
19/07:30pm 14.0 9.7 1.0 41 5.6 SSE 13 15 7 8 1020.1 1019.7 0.0
19/07:00pm 14.1 9.8 1.1 41 5.6 SE 13 15 7 8 1019.9 1019.5 0.0
19/06:30pm 14.8 10.5 1.0 39 6.0 SE 13 17 7 9 1019.5 1019.2 0.0
19/06:00pm 15.4 11.1 1.2 38 6.2 SSE 13 15 7 8 1019.3 1019.0 0.0
19/05:30pm 16.9 12.5 0.5 33 7.2 SSE 13 19 7 10 1019.1 1018.8 0.0
19/05:00pm 19.1 14.6 -0.3 27 8.5 SSE 13 17 7 9 1018.9 1018.6 0.0
19/04:30pm 20.0 14.6 -1.2 24 9.2 S 17 20 9 11 1018.8 1018.5 0.0
19/04:00pm 20.4 15.2 0.3 26 9.0 S 17 30 9 16 1018.6 1018.3 0.0
19/03:30pm 20.5 14.9 -0.2 25 9.2 SSE 19 26 10 14 1018.4 1018.1 0.0
19/03:00pm 20.7 15.0 0.5 26 9.1 S 20 30 11 16 1018.4 1018.1 0.0
19/02:30pm 20.4 14.9 0.3 26 9.0 S 19 28 10 15 1018.3 1018.0 0.0
19/02:00pm 19.9 14.4 0.9 28 8.6 S 19 28 10 15 1018.6 1018.3 0.0
19/01:30pm 20.2 15.3 2.1 30 8.4 SSE 17 24 9 13 1018.9 1018.6 0.0
19/01:00pm 19.8 14.9 2.2 31 8.2 SE 17 26 9 14 1019.5 1019.2 0.0
19/12:30pm 19.3 14.7 1.8 31 8.0 SE 15 24 8 13 1020.1 1019.7 0.0
19/12:00pm 19.0 13.6 2.4 33 7.7 S 20 28 11 15 1020.6 1020.2 0.0
19/11:30am 18.4 12.6 2.3 34 7.4 SE 22 33 12 18 1021.1 1020.8 0.0
19/11:00am 17.9 11.3 1.8 34 7.3 SE 26 33 14 18 1021.3 1021.0 0.0
19/10:30am 17.6 9.8 2.0 35 7.1 SSE 32 43 17 23 1021.6 1021.3 0.0
19/10:00am 16.9 9.8 1.4 35 6.9 SSE 28 35 15 19 1021.4 1021.1 0.0
19/09:30am 15.9 9.3 2.3 40 6.1 SSE 26 35 14 19 1021.7 1021.4 0.0
19/09:00am 14.5 7.9 2.1 43 5.5 SSE 26 39 14 21 1021.4 1021.1 0.0
19/08:30am 13.1 7.8 2.1 47 4.8 S 19 28 10 15 1021.3 1021.0 0.0
19/08:00am 11.5 6.3 2.3 53 4.0 S 19 26 10 14 1021.1 1020.8 0.0
19/07:30am 9.5 5.2 3.0 64 2.8 SSW 15 19 8 10 1020.9 1020.5 0.0
19/07:00am 7.7 3.7 2.8 71 2.1 SSW 13 15 7 8 1020.9 1020.5 0.0
19/06:30am 7.7 4.0 2.6 70 2.2 SW 11 13 6 7 1020.8 1020.4 0.0
19/06:00am 7.9 4.2 2.6 69 2.2 SSW 11 13 6 7 1020.4 1020.0 0.0
19/05:30am 8.1 4.4 2.6 68 2.3 SSW 11 13 6 7 1020.1 1019.7 0.0
19/05:00am 8.3 4.7 2.8 68 2.3 SSW 11 13 6 7 1019.7 1019.3 0.0
19/04:30am 8.9 6.0 2.7 65 2.7 S 7 11 4 6 1019.5 1019.2 0.0
19/04:00am 9.3 6.6 2.6 63 2.9 SSE 6 9 3 5 1019.4 1019.1 0.0
19/03:30am 9.9 7.2 2.7 61 3.1 SSE 6 9 3 5 1019.5 1019.2 0.0
19/03:00am 10.4 6.4 2.7 59 3.3 SSE 13 19 7 10 1019.2 1018.9 0.0
19/02:30am 10.8 6.5 3.1 59 3.4 SSE 15 20 8 11 1019.1 1018.8 0.0
19/02:00am 11.0 6.3 3.3 59 3.4 SSE 17 20 9 11 1019.2 1018.9 0.0
19/01:30am 11.3 6.7 3.6 59 3.4 SSE 17 20 9 11 1019.4 1019.1 0.0
19/01:00am 11.6 7.0 3.9 59 3.5 SSE 17 20 9 11 1019.4 1019.1 0.0
19/12:30am 11.6 7.1 4.1 60 3.4 SSE 17 20 9 11 1019.4 1019.1 0.0
19/12:00am 11.2 7.1 4.4 63 3.1 SSE 15 17 8 9 1019.8 1019.4 0.0
 
Date/Time
EST
Temp
°C
App
Temp
°C
Dew
Point
°C
Rel
Hum
%
Delta-T
°C
Wind Press
QNH
hPa
Press
MSL
hPa
Rain since
9am
mm
Dir  Spd
km/h
Gust
km/h
Spd
kts
Gust
kts
18/11:30pm 12.1 8.4 4.6 60 3.4 SSE 13 17 7 9 1019.9 1019.5 0.0
18/11:00pm 11.3 8.1 5.2 66 2.8 S 11 15 6 8 1020.0 1019.6 0.0
18/10:30pm 11.5 8.8 5.6 67 2.8 SSW 9 11 5 6 1020.2 1019.8 0.0
18/10:00pm 12.4 10.3 5.6 63 3.2 WSW 6 7 3 4 1020.2 1019.8 0.0
18/09:30pm 12.4 9.7 5.6 63 3.2 S 9 11 5 6 1020.0 1019.6 0.0
18/09:00pm 12.3 9.9 5.2 62 3.3 SSW 7 9 4 5 1019.9 1019.5 0.0
18/08:30pm 13.1 10.9 5.3 59 3.7 S 6 7 3 4 1019.7 1019.3 0.0
18/08:00pm 12.4 11.3 5.3 62 3.3 CALM 0 4 0 2 1019.3 1019.0 0.0
18/07:30pm 14.2 11.9 5.0 54 4.3 E 6 6 3 3 1018.9 1018.6 0.0
18/07:00pm 15.3 13.0 5.0 50 4.9 ESE 6 7 3 4 1018.7 1018.4 0.0
18/06:30pm 16.1 13.6 4.8 47 5.4 ESE 7 9 4 5 1018.3 1018.0 0.0
18/06:00pm 16.8 13.7 3.8 42 6.1 SE 9 9 5 5 1017.9 1017.6 0.0
18/05:30pm 18.4 15.4 2.3 34 7.4 SSW 7 9 4 5 1017.5 1017.2 0.0
18/05:00pm 21.1 17.2 1.4 27 9.1 SW 11 11 6 6 1017.2 1016.9 0.0
18/04:30pm 21.6 18.6 1.8 27 9.3 SW 7 11 4 6 1017.0 1016.7 0.0
18/04:00pm 21.7 17.2 2.4 28 9.1 SW 15 20 8 11 1017.0 1016.7 0.0
18/03:30pm 22.0 18.5 3.6 30 8.9 W 11 15 6 8 1016.9 1016.6 0.0
18/03:00pm 21.9 17.7 4.0 31 8.7 SSW 15 20 8 11 1016.9 1016.6 0.0
18/02:30pm 21.4 18.9 4.5 33 8.3 SSE 7 15 4 8 1017.1 1016.8 0.0
18/02:00pm 20.8 17.3 3.5 32 8.3 S 11 19 6 10 1017.4 1017.1 0.0
18/01:30pm 20.5 17.6 4.5 35 7.8 SW 9 17 5 9 1017.8 1017.5 0.0
18/01:00pm 20.2 17.1 5.4 38 7.3 SSW 11 19 6 10 1018.4 1018.1 0.0
18/12:30pm 19.6 15.2 4.9 38 7.2 S 17 26 9 14 1019.0 1018.7 0.0
18/12:00pm 19.3 15.1 5.7 41 6.7 S 17 28 9 15 1019.5 1019.2 0.0
18/11:30am 19.0 14.8 5.8 42 6.6 SSE 17 26 9 14 1019.9 1019.5 0.0
18/11:00am 18.6 14.0 5.8 43 6.3 SSE 19 26 10 14 1020.4 1020.0 0.0
18/10:30am 17.9 12.8 5.8 45 6.0 SSE 22 33 12 18 1020.6 1020.2 0.0
18/10:00am 16.8 11.9 5.1 46 5.6 SSE 20 33 11 18 1021.0 1020.6 0.0
18/09:30am 15.7 12.0 6.2 53 4.6 S 15 20 8 11 1021.1 1020.8 0.0
18/09:00am 14.1 9.9 5.5 56 4.1 S 17 26 9 14 1021.0 1020.6 0.0
18/08:30am 12.4 8.6 5.6 63 3.2 S 15 19 8 10 1020.9 1020.5 0.0
18/08:00am 10.4 7.2 5.0 69 2.5 S 11 15 6 8 1020.7 1020.3 0.0

Other formats

Comma delimited format used in spreadsheet applications
http://www.bom.gov.au/fwo/IDQ60801/IDQ60801.94363.axf

JavaScript Object Notation format (JSON) in row-major order
http://www.bom.gov.au/fwo/IDQ60801/IDQ60801.94363.json

Data quality

Most of these data are generated automatically and are frequently updated. Quality checks on data are not normally performed. It is possible for incorrect values to appear. Refer to information at About Latest Weather Observations and please check the disclaimer before using these data.